Time;durP1;ratioP1;P1;durP2;ratioP2;P2;SDS_P1;SDS_P2;PMS_P1;PMS_P2;Temp;Humidity;BMP_temperature;BMP_pressure;BME280_temperature;BME280_humidity;BME280_pressure;Samples;Min_cycle;Max_cycle;Signal;HPM_P1;HPM_P2
2022/08/02 00:01:54;;;;;;;2.07;1.97;;;;;;;;;;5011009;28;20443;-74
2022/08/02 00:04:21;;;;;;;2.37;2.17;;;;;;;;;;5010285;28;20462;-73
2022/08/02 00:06:48;;;;;;;2.40;2.30;;;;;;;;;;5006598;28;20463;-75
2022/08/02 00:09:15;;;;;;;2.60;2.17;;;;;;;;;;5009381;28;20443;-74
2022/08/02 00:11:42;;;;;;;2.10;2.00;;;;;;;;;;5010606;28;20447;-75
2022/08/02 00:14:09;;;;;;;2.93;2.60;;;;;;;;;;5010122;28;20521;-75
2022/08/02 00:16:36;;;;;;;2.70;2.50;;;;;;;;;;5010693;28;20889;-74
2022/08/02 00:19:05;;;;;;;2.20;2.10;;;;;;;;;;5010520;28;20474;-74
2022/08/02 00:21:32;;;;;;;3.37;2.87;;;;;;;;;;5010522;28;20458;-75
2022/08/02 00:23:59;;;;;;;3.10;2.90;;;;;;;;;;5010858;28;20474;-75
2022/08/02 00:26:26;;;;;;;3.80;3.30;;;;;;;;;;5012492;28;20593;-74
2022/08/02 00:28:53;;;;;;;3.37;3.00;;;;;;;;;;5011543;28;20832;-74
2022/08/02 00:31:20;;;;;;;4.00;3.60;;;;;;;;;;5004074;28;20813;-74
2022/08/02 00:33:47;;;;;;;3.40;3.10;;;;;;;;;;5009744;28;21049;-75
2022/08/02 00:36:15;;;;;;;3.20;3.00;;;;;;;;;;5010067;28;20554;-75
2022/08/02 00:38:43;;;;;;;3.97;3.67;;;;;;;;;;5010598;28;20451;-75
2022/08/02 00:41:15;;;;;;;5.03;4.27;;;;;;;;;;5009003;28;20443;-76
2022/08/02 00:43:42;;;;;;;4.20;3.80;;;;;;;;;;5005194;28;20475;-75
2022/08/02 00:46:09;;;;;;;3.30;2.97;;;;;;;;;;5009945;28;20828;-75
2022/08/02 00:48:36;;;;;;;3.20;3.00;;;;;;;;;;5010275;28;20489;-74
2022/08/02 00:51:03;;;;;;;3.93;3.63;;;;;;;;;;5010694;28;20517;-74
2022/08/02 00:53:32;;;;;;;3.83;3.53;;;;;;;;;;5011222;28;20498;-74
2022/08/02 00:55:59;;;;;;;3.87;3.47;;;;;;;;;;5012143;28;20530;-76
2022/08/02 00:58:26;;;;;;;4.03;3.30;;;;;;;;;;5010612;28;20455;-74
2022/08/02 01:00:56;;;;;;;4.50;3.53;;;;;;;;;;5010372;28;20457;-74
2022/08/02 01:03:23;;;;;;;3.80;3.50;;;;;;;;;;5009836;28;20460;-75
2022/08/02 01:05:50;;;;;;;3.60;3.40;;;;;;;;;;5009823;28;20814;-74
2022/08/02 01:08:17;;;;;;;3.87;3.57;;;;;;;;;;5010822;28;20497;-75
2022/08/02 01:10:46;;;;;;;3.60;3.30;;;;;;;;;;5014435;28;20451;-76
2022/08/02 01:13:13;;;;;;;5.03;3.17;;;;;;;;;;5014284;28;20446;-73
2022/08/02 01:15:44;;;;;;;3.67;3.37;;;;;;;;;;5014877;28;20520;-74
2022/08/02 01:18:17;;;;;;;3.67;3.37;;;;;;;;;;5015598;28;20586;-75
2022/08/02 01:20:49;;;;;;;3.80;3.50;;;;;;;;;;5016112;28;20451;-75
2022/08/02 01:23:25;;;;;;;3.40;3.20;;;;;;;;;;5013523;28;20443;-75
2022/08/02 01:26:01;;;;;;;3.47;3.17;;;;;;;;;;5013340;28;20905;-76
2022/08/02 01:28:30;;;;;;;3.13;2.70;;;;;;;;;;5013690;28;20439;-74
2022/08/02 01:31:00;;;;;;;3.33;3.00;;;;;;;;;;5013527;28;20541;-74
2022/08/02 01:33:31;;;;;;;3.20;2.97;;;;;;;;;;5013158;28;20877;-77
2022/08/02 01:35:59;;;;;;;2.90;2.40;;;;;;;;;;5013844;28;20450;-74
2022/08/02 01:38:29;;;;;;;3.00;2.80;;;;;;;;;;5013574;28;20451;-75
2022/08/02 01:40:57;;;;;;;3.33;3.13;;;;;;;;;;5013557;28;20440;-75
2022/08/02 01:43:26;;;;;;;3.27;2.40;;;;;;;;;;5013147;28;20443;-75
2022/08/02 01:45:54;;;;;;;2.40;2.30;;;;;;;;;;5013372;28;20501;-74
2022/08/02 01:48:22;;;;;;;3.33;3.07;;;;;;;;;;5013242;28;20447;-76
2022/08/02 01:50:50;;;;;;;2.70;2.60;;;;;;;;;;5013247;28;20593;-75
2022/08/02 01:53:19;;;;;;;2.73;2.53;;;;;;;;;;5013008;28;20455;-74
2022/08/02 01:55:47;;;;;;;3.33;2.40;;;;;;;;;;5013084;28;20463;-74
2022/08/02 01:58:17;;;;;;;2.90;2.70;;;;;;;;;;5012915;28;20439;-75
2022/08/02 02:00:44;;;;;;;3.60;2.70;;;;;;;;;;5013051;28;20451;-76
2022/08/02 02:03:14;;;;;;;3.37;3.17;;;;;;;;;;5012718;28;20509;-74
2022/08/02 02:05:42;;;;;;;2.93;2.70;;;;;;;;;;5012848;28;20525;-74
2022/08/02 02:08:10;;;;;;;2.97;2.77;;;;;;;;;;5012925;28;20443;-74
2022/08/02 02:10:39;;;;;;;2.63;2.43;;;;;;;;;;5000746;28;20503;-75
2022/08/02 02:13:08;;;;;;;2.93;2.70;;;;;;;;;;4995862;28;20455;-75
2022/08/02 02:15:35;;;;;;;2.50;2.37;;;;;;;;;;4993741;28;20480;-75
2022/08/02 02:18:03;;;;;;;3.30;3.10;;;;;;;;;;4997648;28;20580;-74
2022/08/02 02:20:31;;;;;;;3.20;2.93;;;;;;;;;;5008903;28;20517;-75
2022/08/02 02:22:59;;;;;;;2.73;2.53;;;;;;;;;;5014184;28;21022;-74
2022/08/02 02:25:26;;;;;;;3.13;2.83;;;;;;;;;;5012285;28;21006;-75
2022/08/02 02:27:56;;;;;;;2.73;2.53;;;;;;;;;;5012896;28;20455;-74
2022/08/02 02:30:26;;;;;;;2.87;2.67;;;;;;;;;;5013834;28;20501;-75
2022/08/02 02:32:56;;;;;;;3.77;2.50;;;;;;;;;;5017175;28;20451;-77
2022/08/02 02:35:23;;;;;;;2.70;2.60;;;;;;;;;;5015064;28;20460;-75
2022/08/02 02:37:51;;;;;;;3.53;2.73;;;;;;;;;;5012462;28;20447;-74
2022/08/02 02:40:19;;;;;;;3.57;2.60;;;;;;;;;;5012472;28;20517;-74
2022/08/02 02:42:47;;;;;;;3.20;2.80;;;;;;;;;;5012355;28;20448;-74
2022/08/02 02:45:14;;;;;;;2.70;2.50;;;;;;;;;;5012132;28;20483;-74
2022/08/02 02:47:42;;;;;;;3.03;2.80;;;;;;;;;;5012264;28;20443;-75
2022/08/02 02:50:10;;;;;;;2.70;2.50;;;;;;;;;;5011936;28;20455;-74
2022/08/02 02:52:37;;;;;;;6.13;3.20;;;;;;;;;;5012134;28;20522;-74
2022/08/02 02:55:07;;;;;;;3.10;2.90;;;;;;;;;;5012066;28;20554;-75
2022/08/02 02:57:34;;;;;;;8.00;2.97;;;;;;;;;;5011855;28;20452;-74
2022/08/02 03:00:01;;;;;;;3.30;3.00;;;;;;;;;;5012059;28;20455;-75
2022/08/02 03:02:29;;;;;;;4.40;2.50;;;;;;;;;;5011939;28;20900;-76
2022/08/02 03:04:56;;;;;;;5.40;3.20;;;;;;;;;;5012175;28;20587;-74
2022/08/02 03:07:23;;;;;;;2.97;2.60;;;;;;;;;;5012208;28;20488;-74
2022/08/02 03:09:50;;;;;;;4.80;3.00;;;;;;;;;;5012288;28;20439;-75
2022/08/02 03:12:19;;;;;;;4.70;2.70;;;;;;;;;;5011973;28;20447;-75
2022/08/02 03:14:46;;;;;;;2.83;2.67;;;;;;;;;;5011707;28;20518;-74
2022/08/02 03:17:13;;;;;;;2.97;2.77;;;;;;;;;;5011692;28;20490;-75
2022/08/02 03:19:40;;;;;;;3.67;2.73;;;;;;;;;;5008549;28;20501;-76
2022/08/02 03:22:07;;;;;;;2.73;2.63;;;;;;;;;;5000116;28;20493;-76
2022/08/02 03:24:34;;;;;;;2.53;2.33;;;;;;;;;;5011358;28;20459;-75
2022/08/02 03:27:01;;;;;;;3.33;3.03;;;;;;;;;;5011431;28;20875;-76
2022/08/02 03:29:29;;;;;;;2.57;2.43;;;;;;;;;;5010621;28;20457;-74
2022/08/02 03:31:57;;;;;;;5.30;3.40;;;;;;;;;;5009575;28;20649;-74
2022/08/02 03:34:24;;;;;;;3.30;2.90;;;;;;;;;;5011084;28;20471;-74
2022/08/02 03:36:52;;;;;;;3.33;3.07;;;;;;;;;;5011263;28;20881;-74
2022/08/02 03:39:20;;;;;;;2.97;2.77;;;;;;;;;;5011460;28;20439;-75
2022/08/02 03:41:48;;;;;;;3.93;2.80;;;;;;;;;;5012049;28;20870;-75
2022/08/02 03:44:16;;;;;;;3.47;3.07;;;;;;;;;;5011485;28;20479;-74
2022/08/02 03:46:44;;;;;;;3.13;2.80;;;;;;;;;;5011101;28;20483;-75
2022/08/02 03:49:12;;;;;;;3.00;2.80;;;;;;;;;;5011164;28;20928;-74
2022/08/02 03:51:39;;;;;;;3.17;2.77;;;;;;;;;;5011198;28;20487;-74
2022/08/02 03:54:06;;;;;;;4.53;3.07;;;;;;;;;;5010799;28;20525;-75
2022/08/02 03:56:34;;;;;;;3.13;2.93;;;;;;;;;;5010972;28;20447;-74
2022/08/02 03:59:08;;;;;;;3.33;3.13;;;;;;;;;;5011082;28;20498;-75
2022/08/02 04:01:35;;;;;;;4.43;4.03;;;;;;;;;;5011203;28;20447;-74
2022/08/02 04:04:03;;;;;;;3.40;3.20;;;;;;;;;;5012493;28;20673;-74
2022/08/02 04:06:30;;;;;;;3.83;3.40;;;;;;;;;;5014086;28;20486;-75
2022/08/02 04:08:57;;;;;;;4.83;3.40;;;;;;;;;;5007322;28;20876;-74
2022/08/02 04:11:30;;;;;;;3.70;3.33;;;;;;;;;;5010247;28;20501;-75
2022/08/02 04:13:58;;;;;;;3.10;2.90;;;;;;;;;;5010688;28;20451;-75
2022/08/02 04:16:29;;;;;;;4.17;3.70;;;;;;;;;;5011188;28;20495;-74
2022/08/02 04:18:56;;;;;;;4.07;2.83;;;;;;;;;;5010839;28;20452;-74
2022/08/02 04:21:27;;;;;;;3.47;3.27;;;;;;;;;;5010859;28;21022;-75
2022/08/02 04:23:56;;;;;;;3.80;3.50;;;;;;;;;;5010824;28;20475;-74
2022/08/02 04:26:23;;;;;;;4.87;3.63;;;;;;;;;;5009568;28;20479;-74
2022/08/02 04:28:50;;;;;;;3.43;3.23;;;;;;;;;;5013553;28;20443;-75
2022/08/02 04:31:17;;;;;;;6.57;3.47;;;;;;;;;;5012447;28;20494;-75
2022/08/02 04:33:45;;;;;;;3.60;3.30;;;;;;;;;;5010024;28;21049;-74
2022/08/02 04:36:13;;;;;;;4.33;3.87;;;;;;;;;;5010424;28;20959;-75
2022/08/02 04:38:42;;;;;;;4.30;3.97;;;;;;;;;;5010452;28;20447;-74
2022/08/02 04:41:09;;;;;;;5.10;3.67;;;;;;;;;;5010614;28;20923;-75
2022/08/02 04:43:36;;;;;;;4.33;3.40;;;;;;;;;;5010090;28;20874;-75
2022/08/02 04:46:03;;;;;;;4.17;3.77;;;;;;;;;;5010419;28;20472;-74
2022/08/02 04:48:30;;;;;;;4.07;3.60;;;;;;;;;;5010310;28;20448;-76
2022/08/02 04:50:57;;;;;;;5.20;3.23;;;;;;;;;;5010117;28;20447;-75
2022/08/02 04:53:24;;;;;;;4.03;3.73;;;;;;;;;;5009612;28;21006;-77
2022/08/02 04:55:53;;;;;;;3.80;3.23;;;;;;;;;;5010305;28;20498;-75
2022/08/02 04:58:20;;;;;;;3.77;3.03;;;;;;;;;;5010152;28;21032;-74
2022/08/02 05:00:47;;;;;;;2.77;2.57;;;;;;;;;;5010177;28;20452;-75
2022/08/02 05:03:14;;;;;;;3.00;2.70;;;;;;;;;;5010172;28;20452;-74
2022/08/02 05:05:41;;;;;;;4.00;3.67;;;;;;;;;;5008952;28;20447;-75
2022/08/02 05:08:08;;;;;;;4.30;3.37;;;;;;;;;;5010068;28;20447;-76
2022/08/02 05:10:35;;;;;;;3.07;2.87;;;;;;;;;;5009884;28;20439;-75
2022/08/02 05:13:05;;;;;;;3.93;3.07;;;;;;;;;;5010032;28;20446;-74
2022/08/02 05:15:32;;;;;;;3.67;3.20;;;;;;;;;;5011118;28;21029;-74
2022/08/02 05:17:59;;;;;;;3.27;2.90;;;;;;;;;;5011066;28;20493;-75
2022/08/02 05:20:26;;;;;;;3.40;3.10;;;;;;;;;;5011246;28;20474;-75
2022/08/02 05:22:53;;;;;;;2.60;2.40;;;;;;;;;;5010124;28;21002;-74
2022/08/02 05:25:21;;;;;;;6.40;5.90;;;;;;;;;;5009822;28;20468;-74
2022/08/02 05:27:48;;;;;;;6.10;5.57;;;;;;;;;;5010143;28;20483;-76
2022/08/02 05:30:16;;;;;;;4.33;3.93;;;;;;;;;;5009439;28;20965;-76
2022/08/02 05:32:44;;;;;;;2.97;2.77;;;;;;;;;;5007026;28;20450;-75
2022/08/02 05:35:11;;;;;;;3.10;2.87;;;;;;;;;;5010272;28;20558;-75
2022/08/02 05:37:38;;;;;;;3.43;3.13;;;;;;;;;;5010292;28;20958;-74
2022/08/02 05:40:06;;;;;;;3.40;3.20;;;;;;;;;;5010228;28;20451;-75
2022/08/02 05:42:33;;;;;;;4.57;4.17;;;;;;;;;;5009634;28;20451;-75
2022/08/02 05:45:00;;;;;;;4.93;4.43;;;;;;;;;;5009742;28;20464;-75
2022/08/02 05:47:29;;;;;;;5.10;3.60;;;;;;;;;;5010301;28;20479;-75
2022/08/02 05:49:56;;;;;;;4.63;4.07;;;;;;;;;;5010272;28;20486;-75
2022/08/02 05:52:25;;;;;;;6.63;4.30;;;;;;;;;;5009727;28;20997;-75
2022/08/02 05:54:55;;;;;;;6.70;3.73;;;;;;;;;;5012195;28;20546;-75
2022/08/02 05:57:27;;;;;;;3.87;3.50;;;;;;;;;;5013915;28;20447;-75
2022/08/02 06:00:03;;;;;;;3.87;3.57;;;;;;;;;;5013567;28;20450;-74
2022/08/02 06:02:35;;;;;;;4.10;3.70;;;;;;;;;;5013388;28;20431;-75
2022/08/02 06:05:05;;;;;;;5.27;3.80;;;;;;;;;;5013266;28;21010;-74
2022/08/02 06:07:35;;;;;;;4.47;3.70;;;;;;;;;;5013582;28;20537;-75
2022/08/02 06:10:03;;;;;;;3.60;3.30;;;;;;;;;;5012931;28;20807;-75
2022/08/02 06:12:32;;;;;;;4.47;3.50;;;;;;;;;;5013311;28;20521;-76
2022/08/02 06:14:59;;;;;;;3.70;3.40;;;;;;;;;;5007346;28;20777;-75
2022/08/02 06:17:26;;;;;;;4.10;3.70;;;;;;;;;;5012705;28;20448;-75
2022/08/02 06:19:57;;;;;;;4.10;3.70;;;;;;;;;;5012766;28;20444;-74
2022/08/02 06:22:26;;;;;;;3.73;3.53;;;;;;;;;;5013556;28;20439;-75
2022/08/02 06:24:54;;;;;;;4.27;3.63;;;;;;;;;;5012076;28;21025;-74
2022/08/02 06:27:21;;;;;;;3.90;3.60;;;;;;;;;;5012814;28;20962;-74
2022/08/02 06:29:49;;;;;;;4.13;3.73;;;;;;;;;;5013093;28;20506;-75
2022/08/02 06:32:18;;;;;;;3.67;3.40;;;;;;;;;;5012949;28;20943;-75
2022/08/02 06:34:45;;;;;;;5.83;4.23;;;;;;;;;;5012522;28;20719;-73
2022/08/02 06:37:20;;;;;;;4.20;3.80;;;;;;;;;;5012382;28;20448;-75
2022/08/02 06:39:49;;;;;;;3.90;3.60;;;;;;;;;;5013140;28;20447;-77
2022/08/02 06:42:18;;;;;;;5.03;4.63;;;;;;;;;;5014829;28;20455;-75
2022/08/02 06:44:45;;;;;;;4.63;4.23;;;;;;;;;;5013185;28;20555;-75
2022/08/02 06:47:12;;;;;;;4.20;3.90;;;;;;;;;;5013588;28;20474;-74
2022/08/02 06:49:39;;;;;;;4.60;3.80;;;;;;;;;;5012882;28;20466;-77
2022/08/02 06:52:06;;;;;;;5.20;4.23;;;;;;;;;;5012266;28;21003;-75
2022/08/02 06:54:37;;;;;;;4.37;3.97;;;;;;;;;;5012274;28;20463;-75
2022/08/02 06:57:05;;;;;;;4.70;3.97;;;;;;;;;;5012269;28;20443;-75
2022/08/02 06:59:32;;;;;;;4.23;3.93;;;;;;;;;;5012087;28;20514;-74
2022/08/02 07:02:01;;;;;;;4.40;4.10;;;;;;;;;;5012479;28;20443;-74
2022/08/02 07:04:28;;;;;;;4.70;4.30;;;;;;;;;;5011688;28;20498;-74
2022/08/02 07:06:56;;;;;;;6.03;4.90;;;;;;;;;;5011152;28;20487;-75
2022/08/02 07:09:23;;;;;;;4.80;4.47;;;;;;;;;;5011898;28;20457;-75
2022/08/02 07:11:51;;;;;;;4.57;4.27;;;;;;;;;;5012049;28;20448;-75
2022/08/02 07:14:18;;;;;;;4.50;4.20;;;;;;;;;;5012242;28;20471;-74
2022/08/02 07:16:45;;;;;;;6.47;5.80;;;;;;;;;;5002327;28;20843;-74
2022/08/02 07:19:12;;;;;;;4.30;3.90;;;;;;;;;;5012140;28;20447;-75
2022/08/02 07:21:39;;;;;;;7.30;4.60;;;;;;;;;;5011676;28;20549;-74
2022/08/02 07:24:06;;;;;;;6.17;4.77;;;;;;;;;;5011468;28;20518;-75
2022/08/02 07:26:33;;;;;;;5.07;4.57;;;;;;;;;;5011745;28;20443;-75
2022/08/02 07:29:02;;;;;;;5.50;4.73;;;;;;;;;;5011758;28;20947;-74
2022/08/02 07:31:29;;;;;;;4.70;4.30;;;;;;;;;;5011623;28;20447;-74
2022/08/02 07:33:56;;;;;;;7.17;4.67;;;;;;;;;;5011871;28;20471;-74
2022/08/02 07:36:23;;;;;;;5.47;4.97;;;;;;;;;;5013553;28;20478;-74
2022/08/02 07:38:50;;;;;;;4.70;3.90;;;;;;;;;;5014346;28;20522;-74
2022/08/02 07:41:17;;;;;;;7.93;4.43;;;;;;;;;;5013239;28;20443;-74
2022/08/02 07:43:44;;;;;;;5.43;4.80;;;;;;;;;;5011510;28;20467;-74
2022/08/02 07:46:12;;;;;;;5.00;4.60;;;;;;;;;;5009550;28;20452;-74
2022/08/02 07:48:39;;;;;;;5.90;4.20;;;;;;;;;;5008946;28;20537;-74
2022/08/02 07:51:06;;;;;;;5.87;4.70;;;;;;;;;;5003710;28;20465;-74
2022/08/02 07:53:33;;;;;;;7.80;5.00;;;;;;;;;;5007716;28;20447;-76
2022/08/02 07:56:00;;;;;;;6.30;5.70;;;;;;;;;;5011366;28;20497;-73
2022/08/02 07:58:27;;;;;;;5.97;4.97;;;;;;;;;;5009465;28;22805;-78
2022/08/02 08:00:54;;;;;;;4.97;4.20;;;;;;;;;;5009864;28;20492;-73
2022/08/02 08:03:23;;;;;;;5.00;4.60;;;;;;;;;;5010868;28;20446;-74
2022/08/02 08:05:51;;;;;;;4.80;4.33;;;;;;;;;;5011639;28;20497;-76
2022/08/02 08:08:18;;;;;;;4.90;4.50;;;;;;;;;;5011307;28;20562;-74
2022/08/02 08:10:45;;;;;;;5.00;4.43;;;;;;;;;;5011131;28;20440;-76
2022/08/02 08:13:12;;;;;;;4.50;4.10;;;;;;;;;;5015439;28;20447;-74
2022/08/02 08:15:39;;;;;;;5.63;4.97;;;;;;;;;;5010971;28;20486;-76
2022/08/02 08:18:06;;;;;;;4.60;4.20;;;;;;;;;;5011397;28;21016;-74
2022/08/02 08:20:35;;;;;;;5.60;5.10;;;;;;;;;;5011146;28;20450;-73
2022/08/02 08:23:02;;;;;;;4.33;4.03;;;;;;;;;;5010463;28;20455;-75
2022/08/02 08:25:29;;;;;;;5.80;4.23;;;;;;;;;;5010885;28;21048;-75
2022/08/02 08:27:56;;;;;;;4.80;4.50;;;;;;;;;;5010802;28;20479;-75
2022/08/02 08:30:23;;;;;;;4.63;4.17;;;;;;;;;;5011730;28;20447;-75
2022/08/02 08:32:50;;;;;;;4.53;4.20;;;;;;;;;;5022125;28;20652;-74
2022/08/02 08:35:17;;;;;;;4.80;4.60;;;;;;;;;;5023597;28;20456;-75
2022/08/02 08:37:45;;;;;;;7.07;5.10;;;;;;;;;;5021965;28;20486;-74
2022/08/02 08:40:13;;;;;;;5.50;5.10;;;;;;;;;;5011156;28;20474;-75
2022/08/02 08:42:40;;;;;;;5.13;4.73;;;;;;;;;;5010378;28;20946;-73
2022/08/02 08:45:08;;;;;;;5.77;5.27;;;;;;;;;;5010769;28;20467;-75
2022/08/02 08:47:36;;;;;;;5.70;5.30;;;;;;;;;;5010473;28;20518;-74
2022/08/02 08:50:04;;;;;;;5.50;5.10;;;;;;;;;;5010260;28;21010;-75
2022/08/02 08:52:35;;;;;;;4.80;4.50;;;;;;;;;;5010069;28;20951;-75
2022/08/02 08:55:04;;;;;;;5.17;4.83;;;;;;;;;;5010294;28;20523;-74
2022/08/02 08:57:31;;;;;;;5.40;5.00;;;;;;;;;;5010762;28;20443;-75
2022/08/02 08:59:58;;;;;;;6.00;5.40;;;;;;;;;;5011742;28;20522;-76
2022/08/02 09:02:25;;;;;;;4.60;4.20;;;;;;;;;;5013660;28;20443;-74
2022/08/02 09:04:52;;;;;;;5.50;5.10;;;;;;;;;;5013732;28;20463;-74
2022/08/02 09:07:19;;;;;;;5.37;4.97;;;;;;;;;;5011948;28;20476;-75
2022/08/02 09:09:46;;;;;;;4.70;4.30;;;;;;;;;;5005321;28;20440;-75
2022/08/02 09:12:15;;;;;;;5.47;5.07;;;;;;;;;;4993207;28;20513;-75
2022/08/02 09:14:42;;;;;;;5.07;4.67;;;;;;;;;;4993747;28;20903;-75
2022/08/02 09:17:11;;;;;;;5.47;5.07;;;;;;;;;;4992480;28;20444;-74
2022/08/02 09:19:38;;;;;;;6.17;5.20;;;;;;;;;;4992794;28;20490;-74
2022/08/02 09:22:06;;;;;;;5.10;4.80;;;;;;;;;;4993200;28;20452;-75
2022/08/02 09:24:41;;;;;;;5.97;5.50;;;;;;;;;;4991844;28;21003;-75
2022/08/02 09:27:11;;;;;;;6.10;5.27;;;;;;;;;;4990746;28;20533;-75
2022/08/02 09:29:39;;;;;;;8.10;7.40;;;;;;;;;;4992284;28;20483;-75
2022/08/02 09:32:07;;;;;;;5.63;5.13;;;;;;;;;;4995500;28;20494;-76
2022/08/02 09:34:47;;;;;;;5.00;4.60;;;;;;;;;;4995614;28;20474;-74
2022/08/02 09:37:24;;;;;;;6.90;6.20;;;;;;;;;;4996197;28;20459;-76
2022/08/02 09:39:51;;;;;;;5.70;5.17;;;;;;;;;;4995746;28;20448;-76
2022/08/02 09:42:18;;;;;;;6.90;6.30;;;;;;;;;;4995324;28;20448;-75
2022/08/02 09:44:56;;;;;;;5.20;4.80;;;;;;;;;;4994390;28;20464;-75
2022/08/02 09:47:24;;;;;;;5.70;5.30;;;;;;;;;;4993729;28;20526;-74
2022/08/02 09:49:51;;;;;;;6.10;5.50;;;;;;;;;;4994058;28;20990;-75
2022/08/02 09:52:22;;;;;;;5.67;5.27;;;;;;;;;;4994254;28;20952;-75
2022/08/02 09:54:50;;;;;;;5.83;5.00;;;;;;;;;;4993673;28;20523;-74
2022/08/02 09:57:25;;;;;;;5.17;4.67;;;;;;;;;;4993842;28;20522;-74
2022/08/02 09:59:53;;;;;;;4.83;4.53;;;;;;;;;;4994516;28;20511;-75
2022/08/02 10:02:22;;;;;;;5.27;4.60;;;;;;;;;;4995510;28;20447;-76
2022/08/02 10:04:49;;;;;;;11.00;4.80;;;;;;;;;;4993955;28;20468;-74
2022/08/02 10:07:16;;;;;;;5.00;4.60;;;;;;;;;;4994145;28;20452;-75
2022/08/02 10:09:44;;;;;;;4.63;4.43;;;;;;;;;;4998623;28;20435;-75
2022/08/02 10:12:12;;;;;;;6.07;4.50;;;;;;;;;;5013442;28;20447;-76
2022/08/02 10:14:39;;;;;;;4.80;4.40;;;;;;;;;;5012903;28;20475;-75
2022/08/02 10:17:07;;;;;;;4.73;4.43;;;;;;;;;;5013439;28;20450;-75
2022/08/02 10:19:36;;;;;;;4.67;4.27;;;;;;;;;;5013866;28;20435;-75
2022/08/02 10:22:06;;;;;;;5.73;5.10;;;;;;;;;;5012047;28;20459;-75
2022/08/02 10:24:36;;;;;;;4.63;4.33;;;;;;;;;;5016810;28;21192;-75
2022/08/02 10:27:04;;;;;;;5.30;4.50;;;;;;;;;;5023264;28;20432;-75
2022/08/02 10:29:34;;;;;;;4.63;4.33;;;;;;;;;;5015424;28;20479;-77
2022/08/02 10:32:03;;;;;;;4.70;4.30;;;;;;;;;;5011818;28;20443;-76
2022/08/02 10:34:47;;;;;;;5.20;4.70;;;;;;;;;;5006641;28;20568;-74
2022/08/02 10:37:16;;;;;;;5.40;5.00;;;;;;;;;;5011289;28;20906;-74
2022/08/02 10:39:44;;;;;;;6.43;4.83;;;;;;;;;;5011388;28;20446;-77
2022/08/02 10:42:12;;;;;;;5.90;5.00;;;;;;;;;;5011896;28;20466;-75
2022/08/02 10:44:39;;;;;;;6.00;4.43;;;;;;;;;;5012910;28;20467;-73
2022/08/02 10:47:23;;;;;;;4.97;4.57;;;;;;;;;;5017425;28;20444;-76
2022/08/02 10:49:50;;;;;;;5.03;4.73;;;;;;;;;;5022781;28;20479;-75
2022/08/02 10:52:19;;;;;;;5.10;4.70;;;;;;;;;;5025060;28;20435;-75
2022/08/02 10:54:49;;;;;;;4.77;4.43;;;;;;;;;;5023638;28;20722;-76
2022/08/02 10:57:18;;;;;;;5.60;5.17;;;;;;;;;;5013622;28;20880;-75
2022/08/02 10:59:45;;;;;;;5.00;4.70;;;;;;;;;;5011923;28;20436;-75
2022/08/02 11:02:13;;;;;;;4.77;4.27;;;;;;;;;;5011631;28;20443;-76
2022/08/02 11:04:59;;;;;;;4.57;4.30;;;;;;;;;;5011455;28;20550;-75
2022/08/02 11:07:33;;;;;;;5.50;4.50;;;;;;;;;;5011557;28;20935;-73
2022/08/02 11:10:20;;;;;;;5.20;4.90;;;;;;;;;;5011632;28;20569;-74
2022/08/02 11:13:00;;;;;;;5.50;4.90;;;;;;;;;;5011292;28;20451;-75
2022/08/02 11:15:27;;;;;;;4.70;4.40;;;;;;;;;;5011247;28;20514;-75
2022/08/02 11:17:55;;;;;;;4.00;3.70;;;;;;;;;;5011259;28;20451;-75
2022/08/02 11:20:23;;;;;;;6.10;3.77;;;;;;;;;;5006396;28;20459;-76
2022/08/02 11:22:52;;;;;;;4.30;4.00;;;;;;;;;;5007751;28;20447;-76
2022/08/02 11:25:35;;;;;;;4.97;4.13;;;;;;;;;;5019486;28;20474;-76
2022/08/02 11:28:10;;;;;;;3.80;3.40;;;;;;;;;;5007395;28;20446;-75
2022/08/02 11:30:38;;;;;;;4.40;3.73;;;;;;;;;;5010470;28;20489;-75
2022/08/02 11:33:05;;;;;;;3.57;3.37;;;;;;;;;;5009561;28;20880;-76
2022/08/02 11:35:33;;;;;;;3.70;3.50;;;;;;;;;;5010719;28;20518;-76
2022/08/02 11:38:12;;;;;;;4.50;4.10;;;;;;;;;;5010879;28;20447;-76
2022/08/02 11:40:40;;;;;;;5.67;4.10;;;;;;;;;;5010677;28;20432;-74
2022/08/02 11:43:17;;;;;;;4.50;4.10;;;;;;;;;;5010457;28;20542;-75
2022/08/02 11:45:44;;;;;;;3.90;3.70;;;;;;;;;;5009990;28;20439;-76
2022/08/02 11:48:11;;;;;;;4.13;3.83;;;;;;;;;;5010598;28;20478;-76
2022/08/02 11:50:38;;;;;;;4.00;3.80;;;;;;;;;;5010430;28;20966;-76
2022/08/02 11:53:13;;;;;;;4.73;4.17;;;;;;;;;;5010161;28;20497;-75
2022/08/02 11:55:40;;;;;;;4.13;3.30;;;;;;;;;;5010662;28;20546;-75
2022/08/02 11:58:10;;;;;;;5.10;3.57;;;;;;;;;;5010111;28;21077;-74
2022/08/02 12:00:39;;;;;;;3.80;3.47;;;;;;;;;;5009838;28;20442;-75
2022/08/02 12:03:08;;;;;;;3.70;3.50;;;;;;;;;;5010126;28;20991;-75
2022/08/02 12:05:35;;;;;;;3.90;3.70;;;;;;;;;;5009728;28;20463;-74
2022/08/02 12:08:06;;;;;;;3.83;3.53;;;;;;;;;;5009827;28;20931;-74
2022/08/02 12:10:33;;;;;;;3.77;3.57;;;;;;;;;;5009782;28;20454;-74
2022/08/02 12:13:01;;;;;;;4.10;3.67;;;;;;;;;;5009770;28;20517;-75
2022/08/02 12:15:36;;;;;;;3.97;3.67;;;;;;;;;;5010427;28;20575;-76
2022/08/02 12:20:49;;;;;;;5.50;4.13;;;;;;;;;;5010103;28;20438;-73
2022/08/02 12:23:16;;;;;;;3.90;3.63;;;;;;;;;;5009353;28;20493;-74
2022/08/02 12:25:43;;;;;;;3.90;3.70;;;;;;;;;;5009893;28;20502;-74
2022/08/02 12:28:15;;;;;;;3.90;3.50;;;;;;;;;;5010028;28;20854;-76
2022/08/02 12:30:52;;;;;;;3.87;3.67;;;;;;;;;;5009963;28;20454;-75
2022/08/02 12:33:20;;;;;;;3.83;3.53;;;;;;;;;;5009329;28;20890;-74
2022/08/02 12:35:47;;;;;;;3.43;3.23;;;;;;;;;;5009510;28;20440;-74
2022/08/02 12:38:14;;;;;;;3.93;3.63;;;;;;;;;;5009871;28;20605;-75
2022/08/02 12:40:42;;;;;;;3.33;3.13;;;;;;;;;;5010098;28;20872;-75
2022/08/02 12:43:16;;;;;;;3.87;3.57;;;;;;;;;;5009100;28;20932;-75
2022/08/02 12:45:48;;;;;;;3.33;3.23;;;;;;;;;;5009592;28;20526;-76
2022/08/02 12:48:15;;;;;;;4.77;4.27;;;;;;;;;;5009331;28;20525;-76
2022/08/02 12:50:43;;;;;;;5.23;3.40;;;;;;;;;;5009324;28;20443;-75
2022/08/02 12:53:11;;;;;;;3.80;3.50;;;;;;;;;;5009307;28;20501;-76
2022/08/02 12:55:47;;;;;;;3.70;3.40;;;;;;;;;;5009181;28;20474;-76
2022/08/02 12:58:14;;;;;;;3.63;3.43;;;;;;;;;;5009826;28;20532;-75
2022/08/02 13:00:42;;;;;;;3.60;3.40;;;;;;;;;;5009115;28;20896;-75
2022/08/02 13:03:09;;;;;;;3.23;3.03;;;;;;;;;;5009112;28;20448;-76
2022/08/02 13:05:37;;;;;;;2.93;2.83;;;;;;;;;;5012660;28;20556;-75
2022/08/02 13:08:05;;;;;;;3.40;3.20;;;;;;;;;;5013219;28;20441;-75
2022/08/02 13:10:32;;;;;;;4.83;3.00;;;;;;;;;;5001418;28;20486;-75
2022/08/02 13:13:01;;;;;;;2.90;2.80;;;;;;;;;;4993792;28;20444;-77
2022/08/02 13:15:28;;;;;;;3.70;3.50;;;;;;;;;;4993327;28;20507;-76
2022/08/02 13:17:55;;;;;;;3.43;3.20;;;;;;;;;;4993824;28;20454;-74
2022/08/02 13:20:22;;;;;;;3.93;3.20;;;;;;;;;;4993997;28;20440;-75
2022/08/02 13:22:49;;;;;;;3.30;3.00;;;;;;;;;;4993666;28;20495;-75
2022/08/02 13:25:19;;;;;;;2.80;2.70;;;;;;;;;;4993411;28;21004;-77
2022/08/02 13:27:46;;;;;;;2.90;2.80;;;;;;;;;;4993345;28;20547;-76
2022/08/02 13:30:13;;;;;;;3.23;2.87;;;;;;;;;;4993495;28;20487;-76
2022/08/02 13:32:40;;;;;;;2.60;2.50;;;;;;;;;;4997597;28;20505;-74
2022/08/02 13:35:08;;;;;;;3.50;3.20;;;;;;;;;;5011685;28;20471;-75
2022/08/02 13:37:35;;;;;;;4.27;4.07;;;;;;;;;;5014078;28;20565;-75
2022/08/02 13:40:02;;;;;;;3.47;3.30;;;;;;;;;;5014757;28;20431;-76
2022/08/02 13:42:32;;;;;;;3.50;3.30;;;;;;;;;;5012466;28;20530;-75
2022/08/02 13:44:59;;;;;;;2.90;2.80;;;;;;;;;;5012972;28;20467;-76
2022/08/02 13:47:26;;;;;;;2.70;2.60;;;;;;;;;;5012700;28;20446;-75
2022/08/02 13:49:53;;;;;;;2.87;2.77;;;;;;;;;;5012556;28;21060;-76
2022/08/02 13:52:20;;;;;;;3.73;2.70;;;;;;;;;;5012960;28;20451;-76
2022/08/02 13:54:47;;;;;;;2.60;2.43;;;;;;;;;;5012275;28;20493;-77
2022/08/02 13:57:14;;;;;;;2.43;2.33;;;;;;;;;;5013030;28;20501;-75
2022/08/02 13:59:42;;;;;;;2.30;2.20;;;;;;;;;;5021126;28;20443;-78
2022/08/02 14:02:09;;;;;;;2.83;2.67;;;;;;;;;;5025784;28;20501;-76
2022/08/02 14:04:37;;;;;;;4.27;2.50;;;;;;;;;;5024860;28;20982;-76
2022/08/02 14:07:04;;;;;;;4.80;3.10;;;;;;;;;;5024862;28;21008;-76
2022/08/02 14:09:31;;;;;;;3.47;3.27;;;;;;;;;;5023661;28;20467;-77
2022/08/02 14:11:59;;;;;;;3.27;2.90;;;;;;;;;;5015375;28;20535;-75
2022/08/02 14:14:26;;;;;;;2.93;2.73;;;;;;;;;;5012747;28;20485;-77
2022/08/02 14:16:54;;;;;;;3.40;3.20;;;;;;;;;;5012918;28;20497;-75
2022/08/02 14:19:21;;;;;;;3.13;2.83;;;;;;;;;;5012781;28;20458;-79
2022/08/02 14:21:48;;;;;;;2.80;2.70;;;;;;;;;;5012991;28;20443;-78
2022/08/02 14:24:15;;;;;;;3.60;3.30;;;;;;;;;;5012379;28;21037;-75
2022/08/02 14:26:42;;;;;;;2.90;2.80;;;;;;;;;;5012489;28;20944;-75
2022/08/02 14:29:10;;;;;;;2.70;2.60;;;;;;;;;;5012302;28;20549;-75
2022/08/02 14:31:37;;;;;;;2.87;2.77;;;;;;;;;;5012982;28;20451;-78
2022/08/02 14:34:05;;;;;;;5.13;3.03;;;;;;;;;;5012862;28;20645;-75
2022/08/02 14:36:32;;;;;;;2.80;2.70;;;;;;;;;;5013546;28;20829;-76
2022/08/02 14:39:00;;;;;;;4.70;2.63;;;;;;;;;;5013461;28;20955;-75
2022/08/02 14:41:27;;;;;;;2.70;2.50;;;;;;;;;;5017898;28;20455;-76
2022/08/02 14:44:03;;;;;;;2.30;2.20;;;;;;;;;;5021477;28;20490;-74
2022/08/02 14:46:31;;;;;;;2.40;2.30;;;;;;;;;;5012252;28;20443;-75
2022/08/02 14:49:00;;;;;;;2.50;2.40;;;;;;;;;;5012190;28;20501;-75
2022/08/02 14:51:28;;;;;;;2.70;2.60;;;;;;;;;;5012414;28;20447;-75
2022/08/02 14:53:56;;;;;;;2.33;2.23;;;;;;;;;;5012352;28;20498;-75